Nephi, UT (84648)

12:07 AM MST on February 08, 2016 (GMT -0700)
Ironrod | | Change Station
CLOSE
Current Station
Personal Weather Station
Location: Elk Ridge, UT
Elevation: 5420 ft
Nearby Weather Stations

Elev 5420 ft 40.01 °N, 111.68 °W | Updated 3 minutes ago

Partly Cloudy
Partly Cloudy
20.5 °F
Feels Like 20 °F
N
3.0
Wind Variable Wind from ESE
Gusts 4.0 mph

Today
High -- | Low -- °F
--% Chance of Precip.
Yesterday
High -- | Low -- °F
Precip. -- in
Pressure 30.68 in
Visibility 3.0 miles
Clouds Clear
Windchill 20 °F
Dew Point 12 °F
Humidity 68%
Rainfall in
Snow Depth Not available.
7:28 AM 5:55 PM
Waning Crescent, 0% visible
METAR KPVU 080655Z AUTO 00000KT 3SM CLR M08/M10 A3068 RMK AO1
Pressure 30.68 in
Visibility 3.0 miles
Clouds Clear
Windchill 20 °F
Dew Point 12 °F
Humidity 68%
Rainfall in
Snow Depth Not available.
7:28 AM 5:55 PM
Waning Crescent, 0% visible
METAR KPVU 080655Z AUTO 00000KT 3SM CLR M08/M10 A3068 RMK AO1

10-Day Weather Forecast

Almanac

Astronomy

Feb. 08, 2016 Rise Set
Actual Time
Civil Twilight
Nautical Twilight
Astronomical Twilight
Moon
Length of Visible Light
Length of Day
Tomorrow will be .
, % of the Moon is Illuminated

Today's Extremes

State Highs State Lows

Community

WunderPhotos

Upload Photos

1,891,394 photos uploaded!

WunderBlog® & News

Nearby

Air Quality

  Air Quality AQ Index Pollutant
Not available.

Snow Depth

Station Depth Elevation

Earthquake Activity

City Distance Mag. Time & Date
Minimum magnitude displayed is 2.5.

Coastal Water Temperatures

Place Temperature

Stations

Nearby Weather Stations

Station Location Temp. Windchill Dew Point Humidity Wind Precip. Elev Updated Type
                   

Watches & Warnings

There are currently no watches in effect.